Terminal Aerodrome Forecast
Issued by NWS

Home | Current Version | Previous Version | Text Only | Print | Product List | Glossary On
Versions: 1 2 3 4 5 6 7 8 9 10 11 12 13 14
345
FTUS45 KABQ 080128 AAA
TAFTCC
TAF AMD
KTCC 080128Z 0801/0824 05015G25KT P6SM BKN250
     FM080200 05015KT P6SM OVC025
     FM081000 08007KT P6SM OVC019
     FM081800 14006KT P6SM OVC035=

USA.gov is the U.S. government's official web portal to all federal, state and local government web resources and services.